Time;durP1;ratioP1;P1;durP2;ratioP2;P2;SDS_P1;SDS_P2;PMS_P1;PMS_P2;Temp;Humidity;BMP_temperature;BMP_pressure;BME280_temperature;BME280_humidity;BME280_pressure;Samples;Min_cycle;Max_cycle;Signal;HPM_P1;HPM_P2
2021/06/26 00:00:11;;;;;;;0.00;0.00;;;;;;;24.10;58.68;99975.09;5031885;28;20413;-68
2021/06/26 00:02:39;;;;;;;0.00;0.00;;;;;;;24.01;59.01;99981.16;5040473;28;20194;-71
2021/06/26 00:05:08;;;;;;;0.00;0.00;;;;;;;23.98;59.54;99989.50;5005207;28;20089;-69
2021/06/26 00:07:37;;;;;;;0.00;0.00;;;;;;;23.99;59.03;99985.81;5031951;28;20060;-69
2021/06/26 00:10:06;;;;;;;0.00;0.00;;;;;;;24.00;58.26;99973.13;5028004;28;20563;-70
2021/06/26 00:12:33;;;;;;;0.00;0.00;;;;;;;24.06;57.76;99986.25;5039435;28;20160;-70
2021/06/26 00:14:59;;;;;;;0.00;0.00;;;;;;;24.03;57.60;99978.31;5042457;28;20048;-69
2021/06/26 00:17:25;;;;;;;0.00;0.00;;;;;;;24.06;57.90;99980.81;5054897;28;20076;-70
2021/06/26 00:19:54;;;;;;;0.00;0.00;;;;;;;23.94;58.27;99965.44;5010368;28;20108;-74
2021/06/26 00:22:20;;;;;;;0.00;0.00;;;;;;;24.00;58.63;99986.66;5021160;28;20056;-68
2021/06/26 00:24:46;;;;;;;0.00;0.00;;;;;;;23.84;58.99;99986.00;5033746;28;20040;-69
2021/06/26 00:27:12;;;;;;;0.00;0.00;;;;;;;23.78;58.86;99965.66;5041166;28;20516;-69
2021/06/26 00:29:38;;;;;;;0.00;0.00;;;;;;;23.89;58.62;99965.72;5041435;28;20049;-69
2021/06/26 00:32:04;;;;;;;0.00;0.00;;;;;;;23.93;58.61;99959.16;5025355;28;20049;-68
2021/06/26 00:34:30;;;;;;;0.00;0.00;;;;;;;23.98;58.74;99972.38;5012745;28;20120;-67
2021/06/26 00:36:56;;;;;;;0.00;0.00;;;;;;;24.02;58.80;99960.34;5036930;28;20136;-68
2021/06/26 00:39:22;;;;;;;0.00;0.00;;;;;;;24.04;58.67;99958.38;5036607;28;20045;-68
2021/06/26 00:41:48;;;;;;;0.00;0.00;;;;;;;24.05;58.51;99960.97;5025145;28;20050;-69
2021/06/26 00:44:14;;;;;;;0.00;0.00;;;;;;;24.10;58.18;99958.84;5020685;28;20053;-69
2021/06/26 00:46:39;;;;;;;0.00;0.00;;;;;;;24.07;57.62;99950.91;5005360;28;20074;-69
2021/06/26 00:49:05;;;;;;;0.00;0.00;;;;;;;24.15;57.64;99961.19;5022938;28;20674;-75
2021/06/26 00:51:32;;;;;;;0.00;0.00;;;;;;;24.19;57.10;99966.28;5025682;28;20446;-74
2021/06/26 00:53:58;;;;;;;0.00;0.00;;;;;;;24.23;57.73;99967.78;5025958;28;20056;-75
2021/06/26 00:56:25;;;;;;;0.00;0.00;;;;;;;24.17;58.07;99965.50;5003758;28;20091;-75
2021/06/26 00:58:54;;;;;;;0.00;0.00;;;;;;;24.02;58.08;99954.94;5018149;28;20055;-76
2021/06/26 01:01:20;;;;;;;0.00;0.00;;;;;;;23.98;57.60;99957.00;5026416;28;20132;-73
2021/06/26 01:03:46;;;;;;;0.00;0.00;;;;;;;24.05;58.78;99971.81;5004362;28;20046;-74
2021/06/26 01:06:14;;;;;;;0.00;0.00;;;;;;;23.96;59.59;99963.47;5004495;28;20060;-72
2021/06/26 01:08:40;;;;;;;0.00;0.00;;;;;;;23.72;60.51;99954.34;5019275;28;20128;-75
2021/06/26 01:11:06;;;;;;;0.00;0.00;;;;;;;23.83;60.98;99968.88;5036339;28;20572;-72
2021/06/26 01:13:32;;;;;;;0.00;0.00;;;;;;;23.86;61.18;99952.44;5039613;28;20053;-72
2021/06/26 01:15:58;;;;;;;0.00;0.00;;;;;;;23.81;60.92;99937.47;5028430;28;20053;-74
2021/06/26 01:18:24;;;;;;;0.00;0.00;;;;;;;23.92;61.03;99949.28;5023047;28;20565;-71
2021/06/26 01:20:51;;;;;;;0.00;0.00;;;;;;;23.94;60.59;99950.06;5007835;28;20129;-75
2021/06/26 01:23:18;;;;;;;0.00;0.00;;;;;;;23.83;60.86;99930.09;5016600;28;20177;-71
2021/06/26 01:25:44;;;;;;;0.00;0.00;;;;;;;24.02;60.91;99952.22;5019246;28;20512;-73
2021/06/26 01:28:10;;;;;;;0.00;0.00;;;;;;;24.03;60.83;99953.94;5020636;28;20053;-72
2021/06/26 01:30:36;;;;;;;0.00;0.00;;;;;;;24.09;60.95;99958.94;5014720;28;20055;-73
2021/06/26 01:33:04;;;;;;;0.10;0.00;;;;;;;24.03;60.94;99951.22;5011852;28;20502;-71
2021/06/26 01:35:31;;;;;;;0.00;0.00;;;;;;;24.15;60.87;99961.19;5006779;28;20468;-72
2021/06/26 01:37:59;;;;;;;0.00;0.00;;;;;;;24.18;60.34;99940.16;5020347;28;20056;-70
2021/06/26 01:40:27;;;;;;;0.00;0.00;;;;;;;24.36;60.31;99948.81;5023239;28;20132;-71
2021/06/26 01:42:54;;;;;;;0.00;0.00;;;;;;;24.44;60.17;99947.25;5008122;28;20045;-71
2021/06/26 01:45:21;;;;;;;0.00;0.00;;;;;;;24.40;59.05;99953.03;4990459;28;20132;-73
2021/06/26 01:47:58;;;;;;;0.00;0.00;;;;;;;24.45;59.85;99962.53;5019216;28;20559;-73
2021/06/26 01:50:26;;;;;;;0.00;0.00;;;;;;;24.40;60.09;99958.44;5006474;28;20046;-72
2021/06/26 01:52:52;;;;;;;0.00;0.00;;;;;;;24.26;59.41;99956.75;5021508;28;20049;-73
2021/06/26 01:55:20;;;;;;;0.10;0.00;;;;;;;23.96;60.24;99964.34;5035902;28;20106;-72
2021/06/26 01:57:48;;;;;;;0.00;0.00;;;;;;;23.64;63.56;99968.44;5013264;28;20184;-72
2021/06/26 02:00:15;;;;;;;0.00;0.00;;;;;;;23.29;64.78;99956.47;5003945;28;20080;-72
2021/06/26 02:02:41;;;;;;;0.00;0.00;;;;;;;23.47;64.97;99954.34;5001980;28;20044;-74
2021/06/26 02:05:10;;;;;;;0.00;0.00;;;;;;;23.68;64.50;99961.84;5005522;28;20401;-72
2021/06/26 02:07:36;;;;;;;0.00;0.00;;;;;;;23.46;64.17;99904.75;5018922;28;20202;-72
2021/06/26 02:10:06;;;;;;;0.00;0.00;;;;;;;23.36;63.60;99933.44;5022118;28;20509;-72
2021/06/26 02:12:33;;;;;;;0.00;0.00;;;;;;;23.56;63.69;99957.28;5015559;28;20584;-73
2021/06/26 02:14:58;;;;;;;0.00;0.00;;;;;;;23.55;63.55;99930.31;5022783;28;20125;-74
2021/06/26 02:17:24;;;;;;;0.00;0.00;;;;;;;23.80;62.87;99935.72;5017100;28;20045;-73
2021/06/26 02:19:50;;;;;;;0.00;0.00;;;;;;;23.86;62.34;99943.44;5019348;28;20140;-74
2021/06/26 02:22:17;;;;;;;0.00;0.00;;;;;;;23.96;61.62;99948.09;5011068;28;20045;-74
2021/06/26 02:24:45;;;;;;;0.00;0.00;;;;;;;24.02;61.48;99942.25;5022577;28;20045;-72
2021/06/26 02:27:11;;;;;;;0.00;0.00;;;;;;;24.09;60.90;99943.53;5019544;28;20069;-73
2021/06/26 02:29:37;;;;;;;0.00;0.00;;;;;;;23.99;61.28;99945.19;5019692;28;20058;-75
2021/06/26 02:32:04;;;;;;;0.00;0.00;;;;;;;24.09;61.00;99940.81;5016496;28;20108;-74
2021/06/26 02:34:31;;;;;;;0.00;0.00;;;;;;;24.23;61.13;99934.41;5011706;28;20041;-76
2021/06/26 02:36:57;;;;;;;0.00;0.00;;;;;;;24.31;61.42;99937.41;5001275;28;20057;-74
2021/06/26 02:39:23;;;;;;;0.03;0.00;;;;;;;24.30;61.73;99925.72;5031764;28;20132;-76
2021/06/26 02:41:52;;;;;;;0.00;0.00;;;;;;;24.45;61.82;99940.84;5021218;28;20513;-76
2021/06/26 02:44:18;;;;;;;0.00;0.00;;;;;;;24.37;61.73;99916.13;5015412;28;20129;-74
2021/06/26 02:46:44;;;;;;;0.00;0.00;;;;;;;24.54;61.42;99928.44;5013450;28;20128;-74
2021/06/26 02:49:10;;;;;;;0.00;0.00;;;;;;;24.61;61.36;99944.19;5011518;28;20049;-69
2021/06/26 02:51:35;;;;;;;0.00;0.00;;;;;;;24.65;62.02;99934.81;5004492;28;20034;-69
2021/06/26 02:54:01;;;;;;;0.00;0.00;;;;;;;24.53;60.40;99916.72;5012314;28;20844;-69
2021/06/26 02:56:29;;;;;;;0.00;0.00;;;;;;;24.57;61.19;99934.50;5007727;28;20531;-68
2021/06/26 02:58:54;;;;;;;0.00;0.00;;;;;;;24.57;60.97;99939.94;5021935;28;20050;-67
2021/06/26 03:01:20;;;;;;;0.00;0.00;;;;;;;24.40;60.09;99950.31;5007908;28;20119;-67
2021/06/26 03:03:46;;;;;;;0.00;0.00;;;;;;;24.28;60.48;99953.88;4989161;28;20042;-71
2021/06/26 03:06:12;;;;;;;0.00;0.00;;;;;;;24.24;61.70;99933.41;5008042;28;20053;-69
2021/06/26 03:08:38;;;;;;;0.00;0.00;;;;;;;24.15;60.62;99943.09;5018126;28;20041;-69
2021/06/26 03:11:03;;;;;;;0.10;0.00;;;;;;;24.30;59.87;99943.81;5024798;28;20957;-69
2021/06/26 03:13:31;;;;;;;0.00;0.00;;;;;;;24.42;60.87;99951.94;5011443;28;20049;-70
2021/06/26 03:15:56;;;;;;;0.00;0.00;;;;;;;24.49;59.94;99936.06;5010894;28;20045;-70
2021/06/26 03:18:22;;;;;;;0.00;0.00;;;;;;;24.58;60.26;99940.81;5026548;28;20052;-70
2021/06/26 03:20:49;;;;;;;0.00;0.00;;;;;;;24.73;61.25;99948.69;5006904;28;20034;-71
2021/06/26 03:23:22;;;;;;;0.03;0.00;;;;;;;24.87;61.34;99948.53;5027228;28;20076;-69
2021/06/26 03:25:48;;;;;;;0.00;0.00;;;;;;;24.97;61.62;99949.53;4990526;28;20053;-69
2021/06/26 03:28:14;;;;;;;0.00;0.00;;;;;;;25.00;62.66;99940.34;5023813;28;20124;-69
2021/06/26 03:30:40;;;;;;;0.05;0.00;;;;;;;24.99;62.88;99947.59;5026287;28;20060;-70
2021/06/26 03:33:09;;;;;;;0.00;0.00;;;;;;;24.96;63.09;99931.53;5026193;28;20058;-69
2021/06/26 03:35:34;;;;;;;0.00;0.00;;;;;;;24.89;63.08;99914.00;5008175;28;20138;-68
2021/06/26 03:38:00;;;;;;;0.00;0.00;;;;;;;25.06;62.17;99940.72;5010211;28;20803;-69
2021/06/26 03:40:26;;;;;;;0.00;0.00;;;;;;;24.98;61.76;99942.28;5026375;28;20038;-70
2021/06/26 03:42:52;;;;;;;0.00;0.00;;;;;;;24.79;62.05;99915.69;5027474;28;20041;-69
2021/06/26 03:45:18;;;;;;;0.00;0.00;;;;;;;24.94;62.01;99932.63;5023664;28;20068;-69
2021/06/26 03:47:44;;;;;;;0.00;0.00;;;;;;;24.73;61.36;99904.44;5011490;28;20107;-69
2021/06/26 03:50:10;;;;;;;0.00;0.00;;;;;;;24.87;60.92;99928.66;5010302;28;20072;-69
2021/06/26 03:52:36;;;;;;;0.00;0.00;;;;;;;24.96;61.66;99909.00;5016366;28;20046;-71
2021/06/26 03:55:03;;;;;;;0.00;0.00;;;;;;;24.96;60.61;99928.81;5008173;28;20138;-71
2021/06/26 03:57:29;;;;;;;0.00;0.00;;;;;;;24.96;61.18;99915.25;5012348;28;20072;-71
2021/06/26 03:59:54;;;;;;;0.00;0.00;;;;;;;25.31;62.18;99931.56;5018763;28;20414;-74
2021/06/26 04:02:20;;;;;;;0.00;0.00;;;;;;;25.42;61.56;99928.91;5040318;28;20064;-70
2021/06/26 04:04:46;;;;;;;0.00;0.00;;;;;;;25.47;61.26;99927.56;5024638;28;20034;-71
2021/06/26 04:07:12;;;;;;;0.00;0.00;;;;;;;25.17;63.00;99931.75;5005146;28;20037;-70
2021/06/26 04:09:38;;;;;;;0.00;0.00;;;;;;;25.66;62.16;99921.53;5007908;28;20105;-70
2021/06/26 04:12:04;;;;;;;0.00;0.00;;;;;;;25.46;61.06;99878.78;5023222;28;20055;-68
2021/06/26 04:14:30;;;;;;;0.00;0.00;;;;;;;25.69;60.31;99908.59;5005625;28;20042;-71
2021/06/26 04:16:56;;;;;;;0.00;0.00;;;;;;;25.61;59.79;99915.59;5055363;28;20072;-73
2021/06/26 04:19:22;;;;;;;0.00;0.00;;;;;;;25.79;60.17;99922.31;5040089;28;20081;-71
2021/06/26 04:21:48;;;;;;;0.10;0.00;;;;;;;25.89;60.62;99921.44;5042297;28;20127;-73
2021/06/26 04:24:14;;;;;;;0.00;0.00;;;;;;;25.77;61.11;99932.41;5037692;28;20510;-73
2021/06/26 04:26:40;;;;;;;0.00;0.00;;;;;;;25.67;61.30;99937.72;5042523;28;20046;-70
2021/06/26 04:29:06;;;;;;;0.10;0.10;;;;;;;25.47;61.54;99922.13;5037499;28;20501;-69
2021/06/26 04:31:32;;;;;;;0.10;0.00;;;;;;;25.80;60.34;99929.47;5025315;28;20102;-70
2021/06/26 04:33:58;;;;;;;0.10;0.10;;;;;;;25.93;59.49;99913.91;5004277;28;20037;-71
2021/06/26 04:36:24;;;;;;;0.22;0.00;;;;;;;26.07;58.65;99932.72;5007059;28;20038;-70
2021/06/26 04:38:50;;;;;;;0.10;0.00;;;;;;;26.11;58.76;99927.91;5005564;28;20045;-72
2021/06/26 04:41:16;;;;;;;0.10;0.10;;;;;;;26.08;59.24;99907.25;5022160;28;20515;-70
2021/06/26 04:43:42;;;;;;;0.10;0.00;;;;;;;26.42;59.46;99924.41;5007971;28;20045;-68
2021/06/26 04:46:09;;;;;;;0.10;0.05;;;;;;;26.45;58.93;99933.16;5015451;28;20073;-68
2021/06/26 04:48:37;;;;;;;0.10;0.00;;;;;;;26.37;58.74;99918.50;5005384;28;20044;-69
2021/06/26 04:51:03;;;;;;;0.10;0.00;;;;;;;26.42;59.25;99921.69;5032771;28;20202;-75
2021/06/26 04:53:29;;;;;;;0.20;0.00;;;;;;;26.50;58.82;99930.09;5036773;28;20041;-74
2021/06/26 04:55:55;;;;;;;0.10;0.00;;;;;;;26.59;59.17;99927.50;5037283;28;20758;-75
2021/06/26 04:58:22;;;;;;;0.10;0.00;;;;;;;26.55;59.32;99927.84;5042320;28;20048;-74
2021/06/26 05:00:52;;;;;;;0.05;0.05;;;;;;;26.57;59.26;99944.91;5039531;28;20041;-82
2021/06/26 05:03:22;;;;;;;0.00;0.00;;;;;;;26.64;59.48;99933.41;5002037;28;20425;-80
2021/06/26 05:05:50;;;;;;;0.00;0.00;;;;;;;26.66;58.90;99936.00;5036234;28;20041;-80
2021/06/26 05:08:16;;;;;;;0.00;0.00;;;;;;;26.67;58.70;99944.06;5030869;28;20045;-82
2021/06/26 05:10:43;;;;;;;0.10;0.00;;;;;;;26.71;58.02;99940.09;5038136;28;20049;-74
2021/06/26 05:13:09;;;;;;;0.00;0.00;;;;;;;26.91;57.60;99939.28;5037478;28;20041;-82
2021/06/26 05:15:35;;;;;;;0.00;0.00;;;;;;;26.89;57.10;99935.81;5041367;28;20194;-71
2021/06/26 05:18:02;;;;;;;0.00;0.00;;;;;;;27.08;55.53;99941.44;5037808;28;20037;-68
2021/06/26 05:20:28;;;;;;;0.00;0.00;;;;;;;27.09;56.48;99936.88;5022277;28;20130;-71
2021/06/26 05:22:54;;;;;;;0.00;0.00;;;;;;;27.35;55.94;99938.25;5035990;28;20041;-79
2021/06/26 05:25:21;;;;;;;0.00;0.00;;;;;;;26.99;56.15;99935.91;5004539;28;20077;-71
2021/06/26 05:27:47;;;;;;;0.00;0.00;;;;;;;27.00;55.82;99930.31;5025725;28;20068;-76
2021/06/26 05:30:13;;;;;;;0.00;0.00;;;;;;;27.07;55.89;99938.84;5037229;28;20471;-73
2021/06/26 05:32:39;;;;;;;0.00;0.00;;;;;;;27.12;55.43;99921.13;5040082;28;20040;-72
2021/06/26 05:35:07;;;;;;;0.17;0.00;;;;;;;27.31;55.28;99939.50;5042163;28;20125;-69
2021/06/26 05:37:33;;;;;;;0.00;0.00;;;;;;;27.38;55.02;99936.13;5021906;28;20049;-69
2021/06/26 05:39:59;;;;;;;0.00;0.00;;;;;;;27.40;55.12;99942.31;5036020;28;20040;-73
2021/06/26 05:42:25;;;;;;;0.00;0.00;;;;;;;27.37;54.93;99942.56;5020474;28;20135;-73
2021/06/26 05:44:51;;;;;;;0.00;0.00;;;;;;;27.41;55.06;99940.44;5040210;28;20550;-66
2021/06/26 05:47:16;;;;;;;0.00;0.00;;;;;;;27.47;54.49;99942.63;5034856;28;20045;-67
2021/06/26 05:49:43;;;;;;;0.30;0.00;;;;;;;27.51;54.35;99939.53;5022347;28;20092;-65
2021/06/26 05:52:09;;;;;;;0.10;0.00;;;;;;;27.59;53.87;99939.72;5042089;28;20044;-65
2021/06/26 05:54:35;;;;;;;0.08;0.00;;;;;;;27.42;54.26;99934.00;5029905;28;20483;-66
2021/06/26 05:57:02;;;;;;;0.20;0.05;;;;;;;27.63;54.27;99934.84;5010502;28;20038;-70
2021/06/26 05:59:28;;;;;;;0.00;0.00;;;;;;;27.64;54.36;99939.31;5021896;28;20512;-71
2021/06/26 06:01:54;;;;;;;0.08;0.00;;;;;;;27.73;54.03;99930.34;5038496;28;20045;-77
2021/06/26 06:04:20;;;;;;;0.00;0.00;;;;;;;27.84;53.85;99924.84;5010719;28;20122;-71
2021/06/26 06:06:46;;;;;;;0.00;0.00;;;;;;;27.70;52.78;99911.53;5019209;28;20140;-67
2021/06/26 06:09:14;;;;;;;0.00;0.00;;;;;;;27.83;51.71;99931.28;5011468;28;20129;-71
2021/06/26 06:11:42;;;;;;;0.00;0.00;;;;;;;27.85;51.97;99930.13;5028573;28;20113;-68
2021/06/26 06:14:08;;;;;;;0.00;0.00;;;;;;;27.90;51.48;99932.47;5029247;28;20985;-71
2021/06/26 06:16:35;;;;;;;0.10;0.00;;;;;;;27.94;51.21;99929.34;5024751;28;20139;-67
2021/06/26 06:19:01;;;;;;;0.00;0.00;;;;;;;28.00;49.53;99928.78;5037654;28;20095;-73
2021/06/26 06:21:28;;;;;;;0.00;0.00;;;;;;;27.89;48.51;99928.03;5010278;28;20423;-74
2021/06/26 06:23:54;;;;;;;0.00;0.00;;;;;;;28.06;48.89;99922.81;5026858;28;20043;-72
2021/06/26 06:26:20;;;;;;;0.00;0.00;;;;;;;28.20;48.97;99918.84;5040692;28;20086;-68
2021/06/26 06:28:46;;;;;;;0.00;0.00;;;;;;;28.23;48.77;99916.69;4993144;28;20044;-68
2021/06/26 06:31:15;;;;;;;0.10;0.00;;;;;;;28.20;48.40;99903.31;5021453;28;20040;-76
2021/06/26 06:33:41;;;;;;;0.00;0.00;;;;;;;28.27;48.75;99900.88;5010098;28;20115;-72
2021/06/26 06:36:07;;;;;;;0.00;0.00;;;;;;;28.42;46.51;99911.34;5004746;28;20473;-71
2021/06/26 06:38:35;;;;;;;0.00;0.00;;;;;;;28.44;44.14;99922.09;5033479;28;20397;-71
2021/06/26 06:41:01;;;;;;;0.00;0.00;;;;;;;28.47;46.72;99909.03;5012406;28;20067;-71
2021/06/26 06:43:27;;;;;;;0.00;0.00;;;;;;;28.45;45.13;99918.38;5003248;28;20046;-74
2021/06/26 06:45:54;;;;;;;0.10;0.00;;;;;;;28.42;45.57;99914.06;5021389;28;20118;-74
2021/06/26 06:48:20;;;;;;;0.10;0.00;;;;;;;28.48;45.87;99915.38;5038345;28;20049;-75
2021/06/26 06:50:46;;;;;;;0.00;0.00;;;;;;;28.46;46.39;99901.00;5021736;28;20052;-74
2021/06/26 06:53:12;;;;;;;0.13;0.00;;;;;;;28.49;47.29;99920.69;5026807;28;20053;-73
2021/06/26 06:55:38;;;;;;;0.00;0.00;;;;;;;28.69;46.45;99911.53;5000891;28;20460;-71
2021/06/26 06:58:04;;;;;;;0.00;0.00;;;;;;;28.65;45.05;99910.09;5043648;28;20049;-72
2021/06/26 07:00:30;;;;;;;0.00;0.00;;;;;;;28.50;45.69;99894.25;5024106;28;20044;-73
2021/06/26 07:02:56;;;;;;;0.00;0.00;;;;;;;28.72;45.04;99911.22;5020657;28;20057;-74
2021/06/26 07:05:22;;;;;;;0.00;0.00;;;;;;;28.68;43.49;99900.75;5056688;28;20037;-73
2021/06/26 07:07:48;;;;;;;0.00;0.00;;;;;;;28.81;43.46;99899.50;5041396;28;20048;-72
2021/06/26 07:10:13;;;;;;;0.00;0.00;;;;;;;29.14;42.42;99907.28;5019007;28;20470;-71
2021/06/26 07:12:40;;;;;;;0.00;0.00;;;;;;;29.31;42.76;99901.06;5025294;28;20514;-71
2021/06/26 07:15:07;;;;;;;0.00;0.00;;;;;;;29.49;41.64;99907.53;5034638;28;20085;-75
2021/06/26 07:17:33;;;;;;;0.00;0.00;;;;;;;29.73;40.73;99919.91;5007872;28;20042;-76
2021/06/26 07:19:59;;;;;;;0.15;0.00;;;;;;;29.84;39.87;99909.63;4996528;28;20049;-73
2021/06/26 07:22:25;;;;;;;0.00;0.00;;;;;;;29.94;39.99;99902.25;4990292;28;20045;-74
2021/06/26 07:24:51;;;;;;;0.20;0.00;;;;;;;30.41;39.26;99889.41;4998436;28;20056;-71
2021/06/26 07:27:17;;;;;;;0.00;0.00;;;;;;;30.73;37.72;99904.34;5020893;28;20056;-72
2021/06/26 07:29:43;;;;;;;0.00;0.00;;;;;;;31.14;37.18;99911.09;5019786;28;20092;-73
2021/06/26 07:32:08;;;;;;;0.00;0.00;;;;;;;31.37;37.29;99913.22;5041422;28;20141;-68
2021/06/26 07:34:34;;;;;;;0.00;0.00;;;;;;;31.31;36.76;99897.44;5013581;28;20050;-73
2021/06/26 07:37:00;;;;;;;0.00;0.00;;;;;;;31.72;36.22;99918.66;5028488;28;20056;-71
2021/06/26 07:39:26;;;;;;;0.00;0.00;;;;;;;31.77;36.03;99912.72;5037970;28;20171;-73
2021/06/26 07:41:52;;;;;;;0.00;0.00;;;;;;;32.40;35.40;99927.88;5014915;28;20489;-72
2021/06/26 07:44:22;;;;;;;0.00;0.00;;;;;;;32.62;34.73;99922.63;5020732;28;20041;-72
2021/06/26 07:46:48;;;;;;;0.00;0.00;;;;;;;32.44;33.95;99932.00;5043533;28;20041;-73
2021/06/26 07:49:14;;;;;;;0.00;0.00;;;;;;;32.79;33.77;99918.06;5041698;28;20068;-73
2021/06/26 07:51:39;;;;;;;0.00;0.00;;;;;;;33.07;32.96;99925.84;5007371;28;20355;-72
2021/06/26 07:54:05;;;;;;;0.00;0.00;;;;;;;33.45;32.21;99927.13;5021064;28;20844;-73
2021/06/26 07:56:32;;;;;;;0.00;0.00;;;;;;;33.24;32.70;99929.50;5024945;28;20041;-71
2021/06/26 07:58:59;;;;;;;0.00;0.00;;;;;;;32.90;32.40;99923.25;5030741;28;20539;-71
2021/06/26 08:01:27;;;;;;;0.00;0.00;;;;;;;33.78;31.89;99927.97;5024896;28;20037;-67
2021/06/26 08:03:53;;;;;;;0.00;0.00;;;;;;;33.99;30.61;99922.81;5020409;28;20099;-73
2021/06/26 08:06:19;;;;;;;0.00;0.00;;;;;;;34.42;30.04;99928.75;5039135;28;20037;-70
2021/06/26 08:08:44;;;;;;;0.00;0.00;;;;;;;34.17;30.52;99920.69;5036624;28;20045;-69
2021/06/26 08:11:10;;;;;;;0.00;0.00;;;;;;;34.64;29.46;99924.34;5036578;28;20052;-72
2021/06/26 08:13:36;;;;;;;0.00;0.00;;;;;;;35.13;28.60;99920.28;5039783;28;20052;-75
2021/06/26 08:16:02;;;;;;;0.00;0.00;;;;;;;34.95;28.71;99920.56;5047467;28;20060;-70
2021/06/26 08:18:28;;;;;;;0.00;0.00;;;;;;;35.84;27.75;99909.72;5042473;28;20266;-81
2021/06/26 08:20:54;;;;;;;0.10;0.10;;;;;;;35.77;27.85;99919.78;5045780;28;20033;-76
2021/06/26 08:23:19;;;;;;;0.00;0.00;;;;;;;36.78;26.26;99919.00;5033287;28;20156;-70
2021/06/26 08:25:45;;;;;;;0.03;0.00;;;;;;;36.16;27.29;99921.28;5026322;28;20053;-70
2021/06/26 08:28:11;;;;;;;0.10;0.10;;;;;;;37.60;25.52;99929.53;5025860;28;20084;-70
2021/06/26 08:30:37;;;;;;;0.10;0.10;;;;;;;37.09;25.48;99910.44;5042274;28;20108;-73
2021/06/26 08:33:03;;;;;;;0.10;0.10;;;;;;;37.64;24.72;99921.69;5024275;28;20048;-70
2021/06/26 08:35:29;;;;;;;0.10;0.10;;;;;;;38.58;23.32;99925.59;5035839;28;20037;-69
2021/06/26 08:37:55;;;;;;;0.03;0.03;;;;;;;39.97;22.53;99923.84;5043225;28;20029;-70
2021/06/26 08:40:22;;;;;;;0.08;0.08;;;;;;;40.13;22.07;99918.69;5038152;28;20072;-73
2021/06/26 08:42:48;;;;;;;0.00;0.00;;;;;;;40.56;21.38;99918.19;5015561;28;20045;-72
2021/06/26 08:45:17;;;;;;;0.10;0.10;;;;;;;41.47;20.64;99921.41;5044419;28;20080;-71
2021/06/26 08:47:49;;;;;;;0.10;0.10;;;;;;;41.16;20.50;99912.19;5021516;28;20052;-71
2021/06/26 08:50:16;;;;;;;0.00;0.00;;;;;;;40.09;21.61;99908.22;5024824;28;20454;-69
2021/06/26 08:52:43;;;;;;;0.10;0.10;;;;;;;40.52;21.29;99908.59;5029713;28;20041;-70
2021/06/26 08:55:10;;;;;;;0.10;0.10;;;;;;;41.98;19.75;99899.81;5035788;28;20096;-72
2021/06/26 08:57:38;;;;;;;0.10;0.10;;;;;;;42.71;18.71;99909.13;5036861;28;20360;-71
2021/06/26 09:00:09;;;;;;;0.10;0.10;;;;;;;43.05;18.24;99906.53;5008050;28;20033;-69
2021/06/26 09:02:35;;;;;;;0.10;0.10;;;;;;;43.95;17.27;99915.69;5031524;28;20069;-70
2021/06/26 09:05:04;;;;;;;0.10;0.10;;;;;;;44.28;16.35;99907.59;5005977;28;20049;-69
2021/06/26 09:07:32;;;;;;;0.10;0.10;;;;;;;43.93;16.68;99913.13;5039960;28;20037;-68
2021/06/26 09:10:13;;;;;;;0.10;0.10;;;;;;;44.18;17.41;99913.78;5038429;28;20049;-69
2021/06/26 09:12:42;;;;;;;0.10;0.10;;;;;;;45.18;16.39;99901.16;5031358;28;20587;-71
2021/06/26 09:15:09;;;;;;;0.15;0.15;;;;;;;45.43;16.09;99905.34;4993159;28;20077;-68
2021/06/26 09:17:38;;;;;;;0.10;0.10;;;;;;;44.52;16.17;99904.50;5006585;28;20146;-69
2021/06/26 09:20:09;;;;;;;0.10;0.10;;;;;;;43.51;17.42;99900.28;5022713;28;20467;-70
2021/06/26 09:22:41;;;;;;;0.10;0.10;;;;;;;44.16;16.48;99896.34;5032568;28;20135;-68
2021/06/26 09:25:30;;;;;;;0.10;0.10;;;;;;;45.93;14.98;99903.44;5024124;28;20068;-70
2021/06/26 09:27:58;;;;;;;0.10;0.10;;;;;;;45.51;15.70;99904.91;5008109;28;20057;-66
2021/06/26 09:30:38;;;;;;;0.10;0.10;;;;;;;45.60;15.08;99892.22;5021179;28;20125;-72
2021/06/26 09:33:11;;;;;;;;;;;;;;;43.17;17.97;99884.25;5005896;28;20167;-70
2021/06/26 09:35:37;;;;;;;0.10;0.10;;;;;;;44.68;16.73;99889.75;5012604;28;20038;-72
2021/06/26 09:38:06;;;;;;;0.10;0.10;;;;;;;45.27;15.77;99872.50;5033682;28;20041;-71
2021/06/26 09:40:32;;;;;;;0.10;0.10;;;;;;;45.13;16.08;99879.53;5040746;28;20539;-70
2021/06/26 09:42:58;;;;;;;0.10;0.10;;;;;;;44.72;16.11;99878.94;5039661;28;20041;-69
2021/06/26 09:45:26;;;;;;;0.10;0.10;;;;;;;45.22;15.84;99885.56;5009690;28;20145;-70
2021/06/26 09:47:52;;;;;;;0.10;0.10;;;;;;;45.54;15.53;99883.94;5032376;28;20077;-69
2021/06/26 09:50:17;;;;;;;0.10;0.10;;;;;;;47.19;14.34;99872.41;5040879;28;20041;-73
2021/06/26 09:53:05;;;;;;;0.15;0.15;;;;;;;47.61;13.80;99886.63;5043391;28;20044;-69
2021/06/26 09:55:48;;;;;;;0.10;0.10;;;;;;;47.47;13.62;99877.75;5017455;28;20045;-66
2021/06/26 09:58:17;;;;;;;0.10;0.10;;;;;;;46.38;14.57;99869.66;5036679;28;20049;-70
2021/06/26 10:00:44;;;;;;;0.10;0.10;;;;;;;45.74;15.52;99864.69;5029927;28;20052;-69
2021/06/26 10:03:15;;;;;;;0.17;0.17;;;;;;;46.42;14.96;99863.28;5022553;28;20044;-72
2021/06/26 10:05:44;;;;;;;0.10;0.10;;;;;;;44.46;16.61;99860.72;5003543;28;20533;-71
2021/06/26 10:08:14;;;;;;;0.10;0.10;;;;;;;43.85;16.54;99851.97;5022831;28;20118;-67
2021/06/26 10:10:40;;;;;;;0.10;0.10;;;;;;;43.08;17.70;99847.44;5034791;28;20048;-69
2021/06/26 10:13:10;;;;;;;0.10;0.10;;;;;;;45.27;15.78;99861.28;5035734;28;20033;-70
2021/06/26 10:15:36;;;;;;;0.10;0.10;;;;;;;45.18;15.76;99857.22;5027062;28;20041;-67
2021/06/26 10:18:02;;;;;;;0.10;0.10;;;;;;;45.68;15.52;99846.97;5039549;28;20056;-76
2021/06/26 10:20:30;;;;;;;0.10;0.10;;;;;;;44.96;16.00;99855.38;5041749;28;20053;-68
2021/06/26 10:23:01;;;;;;;0.03;0.03;;;;;;;45.29;14.89;99855.44;5019091;28;20049;-66
2021/06/26 10:25:32;;;;;;;0.10;0.10;;;;;;;45.00;15.54;99859.38;5033168;28;20085;-69
2021/06/26 10:28:09;;;;;;;0.05;0.05;;;;;;;45.05;14.60;99851.94;5038178;28;20170;-72
2021/06/26 10:30:36;;;;;;;0.00;0.00;;;;;;;45.83;14.67;99849.16;5036697;28;20072;-70
2021/06/26 10:33:05;;;;;;;0.05;0.05;;;;;;;46.18;13.93;99852.53;5038822;28;20264;-70
2021/06/26 10:35:34;;;;;;;0.00;0.00;;;;;;;45.71;13.80;99857.66;5036486;28;20059;-72
2021/06/26 10:38:10;;;;;;;0.00;0.00;;;;;;;46.33;13.30;99853.59;5020682;28;20433;-68
2021/06/26 10:40:49;;;;;;;0.00;0.00;;;;;;;46.97;13.40;99848.25;5035189;28;20067;-70
2021/06/26 10:43:25;;;;;;;0.03;0.03;;;;;;;44.68;15.83;99852.53;5035062;28;20072;-74
2021/06/26 10:46:05;;;;;;;0.10;0.10;;;;;;;45.33;14.50;99845.47;5021833;28;20411;-65
2021/06/26 10:48:31;;;;;;;0.03;0.03;;;;;;;45.31;14.65;99851.31;5022134;28;20381;-65
2021/06/26 10:50:57;;;;;;;0.00;0.00;;;;;;;45.10;15.28;99842.75;5041161;28;20051;-69
2021/06/26 10:53:25;;;;;;;0.00;0.00;;;;;;;44.17;15.87;99852.47;5042724;28;20161;-65
2021/06/26 10:56:06;;;;;;;0.00;0.00;;;;;;;42.74;16.77;99834.16;5036974;28;20040;-68
2021/06/26 10:58:35;;;;;;;0.00;0.00;;;;;;;44.24;15.71;99842.03;5039640;28;20284;-67
2021/06/26 11:01:18;;;;;;;0.00;0.00;;;;;;;44.62;14.74;99840.38;5038448;28;20406;-78
2021/06/26 11:03:46;;;;;;;0.00;0.00;;;;;;;44.56;14.96;99841.38;5028203;28;20042;-75
2021/06/26 11:06:32;;;;;;;0.00;0.00;;;;;;;45.08;14.86;99836.56;5041095;28;20053;-75
2021/06/26 11:09:01;;;;;;;0.00;0.00;;;;;;;45.24;14.20;99830.97;5035463;28;20045;-74
2021/06/26 11:11:36;;;;;;;0.00;0.00;;;;;;;45.00;14.52;99834.19;5032329;28;20041;-74
2021/06/26 11:14:28;;;;;;;0.00;0.00;;;;;;;44.58;15.51;99827.13;5035786;28;20161;-73
2021/06/26 11:16:58;;;;;;;0.00;0.00;;;;;;;43.96;16.24;99816.75;5035481;28;20044;-73
2021/06/26 11:19:31;;;;;;;0.00;0.00;;;;;;;43.77;15.90;99810.38;5039344;28;20049;-73
2021/06/26 11:21:59;;;;;;;0.00;0.00;;;;;;;43.76;16.15;99805.06;5040596;28;20040;-74
2021/06/26 11:24:43;;;;;;;0.00;0.00;;;;;;;43.83;16.28;99798.28;5042690;28;20040;-75
2021/06/26 11:27:13;;;;;;;0.00;0.00;;;;;;;43.70;15.51;99804.09;5038059;28;20483;-75
2021/06/26 11:29:40;;;;;;;0.00;0.00;;;;;;;41.67;17.22;99779.19;5034433;28;20046;-74
2021/06/26 11:32:20;;;;;;;0.17;0.00;;;;;;;40.25;18.24;99779.91;5037045;28;20041;-73
2021/06/26 11:35:12;;;;;;;0.00;0.00;;;;;;;38.87;19.72;99766.34;5036678;28;20041;-73